sensor_id;sensor_type;location;lat;lon;timestamp;P1;durP1;ratioP1;P2;durP2;ratioP2
73550;SDS011;61816;53.582;10.096;2022-12-07T00:01:23;49.30;;;28.35;;
73550;SDS011;61816;53.582;10.096;2022-12-07T00:03:54;65.57;;;33.75;;
73550;SDS011;61816;53.582;10.096;2022-12-07T00:06:31;65.00;;;31.35;;
73550;SDS011;61816;53.582;10.096;2022-12-07T00:08:58;56.75;;;31.73;;
73550;SDS011;61816;53.582;10.096;2022-12-07T00:11:23;60.60;;;32.28;;
73550;SDS011;61816;53.582;10.096;2022-12-07T00:13:53;46.45;;;26.38;;
73550;SDS011;61816;53.582;10.096;2022-12-07T00:16:21;53.90;;;28.30;;
73550;SDS011;61816;53.582;10.096;2022-12-07T00:18:48;58.58;;;29.80;;
73550;SDS011;61816;53.582;10.096;2022-12-07T00:21:17;62.05;;;31.30;;
73550;SDS011;61816;53.582;10.096;2022-12-07T00:23:45;49.13;;;27.83;;
73550;SDS011;61816;53.582;10.096;2022-12-07T00:26:13;60.08;;;30.67;;
73550;SDS011;61816;53.582;10.096;2022-12-07T00:28:41;58.92;;;30.25;;
73550;SDS011;61816;53.582;10.096;2022-12-07T00:31:10;58.47;;;30.15;;
73550;SDS011;61816;53.582;10.096;2022-12-07T00:33:37;50.97;;;27.80;;
73550;SDS011;61816;53.582;10.096;2022-12-07T00:36:07;60.40;;;31.70;;
73550;SDS011;61816;53.582;10.096;2022-12-07T00:38:35;58.58;;;31.35;;
73550;SDS011;61816;53.582;10.096;2022-12-07T00:41:03;55.85;;;30.13;;
73550;SDS011;61816;53.582;10.096;2022-12-07T00:43:34;52.60;;;27.27;;
73550;SDS011;61816;53.582;10.096;2022-12-07T00:45:59;52.55;;;28.98;;
73550;SDS011;61816;53.582;10.096;2022-12-07T00:48:25;51.53;;;26.90;;
73550;SDS011;61816;53.582;10.096;2022-12-07T00:50:50;48.83;;;26.45;;
73550;SDS011;61816;53.582;10.096;2022-12-07T00:53:16;51.35;;;27.40;;
73550;SDS011;61816;53.582;10.096;2022-12-07T00:55:42;49.20;;;26.73;;
73550;SDS011;61816;53.582;10.096;2022-12-07T00:58:08;54.70;;;25.55;;
73550;SDS011;61816;53.582;10.096;2022-12-07T01:00:34;50.35;;;26.90;;
73550;SDS011;61816;53.582;10.096;2022-12-07T01:03:01;54.08;;;27.83;;
73550;SDS011;61816;53.582;10.096;2022-12-07T01:05:27;49.38;;;25.75;;
73550;SDS011;61816;53.582;10.096;2022-12-07T01:07:52;44.92;;;24.50;;
73550;SDS011;61816;53.582;10.096;2022-12-07T01:10:18;44.72;;;22.55;;
73550;SDS011;61816;53.582;10.096;2022-12-07T01:12:43;52.88;;;25.65;;
73550;SDS011;61816;53.582;10.096;2022-12-07T01:15:09;43.97;;;22.83;;
73550;SDS011;61816;53.582;10.096;2022-12-07T01:17:34;46.47;;;23.92;;
73550;SDS011;61816;53.582;10.096;2022-12-07T01:20:00;47.25;;;24.50;;
73550;SDS011;61816;53.582;10.096;2022-12-07T01:22:26;45.50;;;23.25;;
73550;SDS011;61816;53.582;10.096;2022-12-07T01:24:52;43.03;;;21.08;;
73550;SDS011;61816;53.582;10.096;2022-12-07T01:27:17;41.58;;;21.65;;
73550;SDS011;61816;53.582;10.096;2022-12-07T01:29:43;42.88;;;22.77;;
73550;SDS011;61816;53.582;10.096;2022-12-07T01:32:08;41.20;;;21.33;;
73550;SDS011;61816;53.582;10.096;2022-12-07T01:34:34;38.65;;;21.02;;
73550;SDS011;61816;53.582;10.096;2022-12-07T01:36:59;48.42;;;21.02;;
73550;SDS011;61816;53.582;10.096;2022-12-07T01:39:24;42.33;;;19.58;;
73550;SDS011;61816;53.582;10.096;2022-12-07T01:41:50;37.05;;;20.90;;
73550;SDS011;61816;53.582;10.096;2022-12-07T01:44:29;46.45;;;21.52;;
73550;SDS011;61816;53.582;10.096;2022-12-07T01:47:01;40.50;;;20.75;;
73550;SDS011;61816;53.582;10.096;2022-12-07T01:52:21;49.08;;;22.27;;
73550;SDS011;61816;53.582;10.096;2022-12-07T01:54:49;48.35;;;23.73;;
73550;SDS011;61816;53.582;10.096;2022-12-07T01:57:18;44.33;;;23.58;;
73550;SDS011;61816;53.582;10.096;2022-12-07T01:59:46;51.00;;;25.27;;
73550;SDS011;61816;53.582;10.096;2022-12-07T02:02:17;52.60;;;26.55;;
73550;SDS011;61816;53.582;10.096;2022-12-07T02:04:45;45.08;;;24.17;;
73550;SDS011;61816;53.582;10.096;2022-12-07T02:07:11;55.05;;;25.40;;
73550;SDS011;61816;53.582;10.096;2022-12-07T02:09:37;44.90;;;22.83;;
73550;SDS011;61816;53.582;10.096;2022-12-07T02:12:02;47.05;;;23.33;;
73550;SDS011;61816;53.582;10.096;2022-12-07T02:14:28;53.15;;;25.23;;
73550;SDS011;61816;53.582;10.096;2022-12-07T02:16:59;38.35;;;21.40;;
73550;SDS011;61816;53.582;10.096;2022-12-07T02:22:51;48.37;;;20.03;;
73550;SDS011;61816;53.582;10.096;2022-12-07T02:28:31;40.40;;;17.00;;
73550;SDS011;61816;53.582;10.096;2022-12-07T02:31:05;29.33;;;15.15;;
73550;SDS011;61816;53.582;10.096;2022-12-07T02:33:40;36.55;;;15.45;;
73550;SDS011;61816;53.582;10.096;2022-12-07T02:36:30;33.80;;;15.07;;
73550;SDS011;61816;53.582;10.096;2022-12-07T02:39:02;26.77;;;12.40;;
73550;SDS011;61816;53.582;10.096;2022-12-07T02:41:37;29.35;;;12.10;;
73550;SDS011;61816;53.582;10.096;2022-12-07T02:44:16;20.98;;;10.10;;
73550;SDS011;61816;53.582;10.096;2022-12-07T02:47:18;23.30;;;10.50;;
73550;SDS011;61816;53.582;10.096;2022-12-07T02:49:39;25.15;;;10.18;;
73550;SDS011;61816;53.582;10.096;2022-12-07T02:52:05;20.83;;;9.85;;
73550;SDS011;61816;53.582;10.096;2022-12-07T02:54:34;17.85;;;9.73;;
73550;SDS011;61816;53.582;10.096;2022-12-07T03:00:09;23.40;;;8.80;;
73550;SDS011;61816;53.582;10.096;2022-12-07T03:11:06;16.02;;;5.75;;
73550;SDS011;61816;53.582;10.096;2022-12-07T03:13:51;11.90;;;5.67;;
73550;SDS011;61816;53.582;10.096;2022-12-07T03:16:26;15.80;;;6.43;;
73550;SDS011;61816;53.582;10.096;2022-12-07T03:18:56;14.68;;;6.35;;
73550;SDS011;61816;53.582;10.096;2022-12-07T03:21:27;12.45;;;5.90;;
73550;SDS011;61816;53.582;10.096;2022-12-07T03:23:58;18.02;;;6.25;;
73550;SDS011;61816;53.582;10.096;2022-12-07T03:26:30;12.10;;;5.13;;
73550;SDS011;61816;53.582;10.096;2022-12-07T03:28:59;15.23;;;6.10;;
73550;SDS011;61816;53.582;10.096;2022-12-07T03:31:34;17.42;;;5.28;;
73550;SDS011;61816;53.582;10.096;2022-12-07T03:34:07;20.80;;;5.30;;
73550;SDS011;61816;53.582;10.096;2022-12-07T03:36:50;11.47;;;4.43;;
73550;SDS011;61816;53.582;10.096;2022-12-07T03:39:25;7.80;;;3.90;;
73550;SDS011;61816;53.582;10.096;2022-12-07T03:41:56;10.63;;;4.25;;
73550;SDS011;61816;53.582;10.096;2022-12-07T03:44:24;12.87;;;4.00;;
73550;SDS011;61816;53.582;10.096;2022-12-07T03:49:41;11.65;;;3.92;;
73550;SDS011;61816;53.582;10.096;2022-12-07T03:57:29;9.73;;;3.77;;
73550;SDS011;61816;53.582;10.096;2022-12-07T03:59:59;13.00;;;3.27;;
73550;SDS011;61816;53.582;10.096;2022-12-07T04:02:26;10.40;;;3.63;;
73550;SDS011;61816;53.582;10.096;2022-12-07T04:04:54;11.13;;;3.40;;
73550;SDS011;61816;53.582;10.096;2022-12-07T04:07:20;7.17;;;3.10;;
73550;SDS011;61816;53.582;10.096;2022-12-07T04:09:46;10.30;;;3.47;;
73550;SDS011;61816;53.582;10.096;2022-12-07T04:12:11;15.38;;;3.67;;
73550;SDS011;61816;53.582;10.096;2022-12-07T04:14:37;8.73;;;3.37;;
73550;SDS011;61816;53.582;10.096;2022-12-07T04:17:02;9.10;;;3.25;;
73550;SDS011;61816;53.582;10.096;2022-12-07T04:19:32;9.03;;;3.47;;
73550;SDS011;61816;53.582;10.096;2022-12-07T04:22:00;21.30;;;3.60;;
73550;SDS011;61816;53.582;10.096;2022-12-07T04:24:27;10.40;;;3.50;;
73550;SDS011;61816;53.582;10.096;2022-12-07T04:26:53;15.63;;;4.30;;
73550;SDS011;61816;53.582;10.096;2022-12-07T04:29:18;11.57;;;4.07;;
73550;SDS011;61816;53.582;10.096;2022-12-07T04:31:44;8.37;;;3.87;;
73550;SDS011;61816;53.582;10.096;2022-12-07T04:34:10;9.07;;;4.17;;
73550;SDS011;61816;53.582;10.096;2022-12-07T04:36:37;8.67;;;3.87;;
73550;SDS011;61816;53.582;10.096;2022-12-07T04:39:03;10.80;;;3.83;;
73550;SDS011;61816;53.582;10.096;2022-12-07T04:41:29;14.30;;;4.10;;
73550;SDS011;61816;53.582;10.096;2022-12-07T04:43:55;10.70;;;5.17;;
73550;SDS011;61816;53.582;10.096;2022-12-07T04:46:24;12.97;;;4.03;;
73550;SDS011;61816;53.582;10.096;2022-12-07T04:48:51;9.47;;;4.07;;
73550;SDS011;61816;53.582;10.096;2022-12-07T04:51:27;16.40;;;4.00;;
73550;SDS011;61816;53.582;10.096;2022-12-07T04:53:54;13.40;;;4.47;;
73550;SDS011;61816;53.582;10.096;2022-12-07T04:56:21;9.90;;;4.00;;
73550;SDS011;61816;53.582;10.096;2022-12-07T04:58:47;10.67;;;5.00;;
73550;SDS011;61816;53.582;10.096;2022-12-07T05:01:13;15.13;;;4.73;;
73550;SDS011;61816;53.582;10.096;2022-12-07T05:03:40;10.57;;;3.93;;
73550;SDS011;61816;53.582;10.096;2022-12-07T05:06:05;16.87;;;5.33;;
73550;SDS011;61816;53.582;10.096;2022-12-07T05:08:32;14.07;;;5.40;;
73550;SDS011;61816;53.582;10.096;2022-12-07T05:10:58;15.53;;;5.23;;
73550;SDS011;61816;53.582;10.096;2022-12-07T05:13:23;18.67;;;4.70;;
73550;SDS011;61816;53.582;10.096;2022-12-07T05:15:49;13.43;;;5.20;;
73550;SDS011;61816;53.582;10.096;2022-12-07T05:18:14;15.13;;;5.80;;
73550;SDS011;61816;53.582;10.096;2022-12-07T05:20:40;17.60;;;6.07;;
73550;SDS011;61816;53.582;10.096;2022-12-07T05:23:06;13.50;;;5.53;;
73550;SDS011;61816;53.582;10.096;2022-12-07T05:25:32;16.63;;;5.57;;
73550;SDS011;61816;53.582;10.096;2022-12-07T05:27:57;16.37;;;5.97;;
73550;SDS011;61816;53.582;10.096;2022-12-07T05:30:23;18.50;;;5.00;;
73550;SDS011;61816;53.582;10.096;2022-12-07T05:32:50;12.10;;;5.80;;
73550;SDS011;61816;53.582;10.096;2022-12-07T05:35:15;13.73;;;5.40;;
73550;SDS011;61816;53.582;10.096;2022-12-07T05:37:41;13.07;;;5.03;;
73550;SDS011;61816;53.582;10.096;2022-12-07T05:40:07;16.90;;;6.07;;
73550;SDS011;61816;53.582;10.096;2022-12-07T05:42:33;18.57;;;6.10;;
73550;SDS011;61816;53.582;10.096;2022-12-07T05:44:58;22.20;;;5.23;;
73550;SDS011;61816;53.582;10.096;2022-12-07T05:47:23;14.80;;;5.57;;
73550;SDS011;61816;53.582;10.096;2022-12-07T05:49:49;10.23;;;4.83;;
73550;SDS011;61816;53.582;10.096;2022-12-07T05:52:14;20.47;;;5.50;;
73550;SDS011;61816;53.582;10.096;2022-12-07T05:54:40;17.67;;;6.33;;
73550;SDS011;61816;53.582;10.096;2022-12-07T05:57:05;16.13;;;5.93;;
73550;SDS011;61816;53.582;10.096;2022-12-07T05:59:31;15.90;;;6.20;;
73550;SDS011;61816;53.582;10.096;2022-12-07T06:01:57;12.53;;;5.93;;
73550;SDS011;61816;53.582;10.096;2022-12-07T06:04:25;18.53;;;6.03;;
73550;SDS011;61816;53.582;10.096;2022-12-07T06:06:52;21.53;;;6.80;;
73550;SDS011;61816;53.582;10.096;2022-12-07T06:09:19;18.70;;;6.90;;
73550;SDS011;61816;53.582;10.096;2022-12-07T06:11:46;11.10;;;6.13;;
73550;SDS011;61816;53.582;10.096;2022-12-07T06:14:31;15.13;;;5.90;;
73550;SDS011;61816;53.582;10.096;2022-12-07T06:16:56;15.87;;;6.20;;
73550;SDS011;61816;53.582;10.096;2022-12-07T06:19:23;17.42;;;6.38;;
73550;SDS011;61816;53.582;10.096;2022-12-07T06:21:48;10.13;;;6.00;;
73550;SDS011;61816;53.582;10.096;2022-12-07T06:24:14;19.00;;;5.20;;
73550;SDS011;61816;53.582;10.096;2022-12-07T06:26:41;12.40;;;5.63;;
73550;SDS011;61816;53.582;10.096;2022-12-07T06:29:07;19.50;;;5.43;;
73550;SDS011;61816;53.582;10.096;2022-12-07T06:31:32;11.53;;;5.07;;
73550;SDS011;61816;53.582;10.096;2022-12-07T06:34:05;19.30;;;5.53;;
73550;SDS011;61816;53.582;10.096;2022-12-07T06:36:33;16.50;;;4.87;;
73550;SDS011;61816;53.582;10.096;2022-12-07T06:38:59;13.30;;;5.47;;
73550;SDS011;61816;53.582;10.096;2022-12-07T06:41:24;12.83;;;5.10;;
73550;SDS011;61816;53.582;10.096;2022-12-07T06:43:50;14.37;;;4.83;;
73550;SDS011;61816;53.582;10.096;2022-12-07T06:46:15;18.53;;;5.83;;
73550;SDS011;61816;53.582;10.096;2022-12-07T06:48:41;18.73;;;5.43;;
73550;SDS011;61816;53.582;10.096;2022-12-07T06:51:07;14.27;;;4.90;;
73550;SDS011;61816;53.582;10.096;2022-12-07T06:53:33;9.47;;;5.07;;
73550;SDS011;61816;53.582;10.096;2022-12-07T06:55:59;18.03;;;4.33;;
73550;SDS011;61816;53.582;10.096;2022-12-07T06:58:25;13.50;;;4.47;;
73550;SDS011;61816;53.582;10.096;2022-12-07T07:00:50;22.60;;;4.77;;
73550;SDS011;61816;53.582;10.096;2022-12-07T07:03:16;16.67;;;4.30;;
73550;SDS011;61816;53.582;10.096;2022-12-07T07:05:42;12.57;;;4.77;;
73550;SDS011;61816;53.582;10.096;2022-12-07T07:08:08;10.23;;;4.77;;
73550;SDS011;61816;53.582;10.096;2022-12-07T07:10:34;13.03;;;5.30;;
73550;SDS011;61816;53.582;10.096;2022-12-07T07:13:00;21.13;;;4.00;;
73550;SDS011;61816;53.582;10.096;2022-12-07T07:15:25;10.27;;;4.30;;
73550;SDS011;61816;53.582;10.096;2022-12-07T07:17:51;11.33;;;4.70;;
73550;SDS011;61816;53.582;10.096;2022-12-07T07:20:16;10.80;;;4.37;;
73550;SDS011;61816;53.582;10.096;2022-12-07T07:22:42;8.77;;;3.80;;
73550;SDS011;61816;53.582;10.096;2022-12-07T07:25:07;14.67;;;3.83;;
73550;SDS011;61816;53.582;10.096;2022-12-07T07:27:33;10.43;;;3.40;;
73550;SDS011;61816;53.582;10.096;2022-12-07T07:29:58;15.40;;;4.30;;
73550;SDS011;61816;53.582;10.096;2022-12-07T07:32:23;20.03;;;3.63;;
73550;SDS011;61816;53.582;10.096;2022-12-07T07:34:49;13.50;;;3.73;;
73550;SDS011;61816;53.582;10.096;2022-12-07T07:37:14;11.23;;;3.73;;
73550;SDS011;61816;53.582;10.096;2022-12-07T07:39:39;9.87;;;3.97;;
73550;SDS011;61816;53.582;10.096;2022-12-07T07:42:05;14.03;;;4.03;;
73550;SDS011;61816;53.582;10.096;2022-12-07T07:44:32;16.20;;;3.43;;
73550;SDS011;61816;53.582;10.096;2022-12-07T07:46:58;15.13;;;3.47;;
73550;SDS011;61816;53.582;10.096;2022-12-07T07:49:24;7.45;;;2.92;;
73550;SDS011;61816;53.582;10.096;2022-12-07T07:51:49;16.60;;;3.40;;
73550;SDS011;61816;53.582;10.096;2022-12-07T07:54:14;9.00;;;3.30;;
73550;SDS011;61816;53.582;10.096;2022-12-07T07:56:40;15.33;;;3.70;;
73550;SDS011;61816;53.582;10.096;2022-12-07T07:59:05;20.17;;;3.13;;
73550;SDS011;61816;53.582;10.096;2022-12-07T08:01:31;8.17;;;2.83;;
73550;SDS011;61816;53.582;10.096;2022-12-07T08:03:56;11.33;;;2.53;;
73550;SDS011;61816;53.582;10.096;2022-12-07T08:06:21;12.63;;;2.43;;
73550;SDS011;61816;53.582;10.096;2022-12-07T08:08:47;9.20;;;2.88;;
73550;SDS011;61816;53.582;10.096;2022-12-07T08:11:12;15.52;;;3.20;;
73550;SDS011;61816;53.582;10.096;2022-12-07T08:13:38;12.07;;;2.03;;
73550;SDS011;61816;53.582;10.096;2022-12-07T08:16:07;10.13;;;2.97;;
73550;SDS011;61816;53.582;10.096;2022-12-07T08:18:35;15.73;;;3.08;;
73550;SDS011;61816;53.582;10.096;2022-12-07T08:21:02;11.43;;;2.87;;
73550;SDS011;61816;53.582;10.096;2022-12-07T08:23:28;14.68;;;2.47;;
73550;SDS011;61816;53.582;10.096;2022-12-07T08:25:54;12.07;;;2.42;;
73550;SDS011;61816;53.582;10.096;2022-12-07T08:28:19;15.77;;;2.90;;
73550;SDS011;61816;53.582;10.096;2022-12-07T08:30:45;6.40;;;2.47;;
73550;SDS011;61816;53.582;10.096;2022-12-07T08:33:10;6.43;;;2.08;;
73550;SDS011;61816;53.582;10.096;2022-12-07T08:35:36;19.98;;;2.83;;
73550;SDS011;61816;53.582;10.096;2022-12-07T08:38:02;8.57;;;2.67;;
73550;SDS011;61816;53.582;10.096;2022-12-07T08:40:28;17.88;;;3.13;;
73550;SDS011;61816;53.582;10.096;2022-12-07T08:42:54;11.32;;;2.63;;
73550;SDS011;61816;53.582;10.096;2022-12-07T08:45:20;13.77;;;3.13;;
73550;SDS011;61816;53.582;10.096;2022-12-07T08:47:54;19.42;;;2.60;;
73550;SDS011;61816;53.582;10.096;2022-12-07T08:50:27;11.75;;;2.55;;
73550;SDS011;61816;53.582;10.096;2022-12-07T08:52:54;16.15;;;2.83;;
73550;SDS011;61816;53.582;10.096;2022-12-07T08:55:22;19.95;;;3.03;;
73550;SDS011;61816;53.582;10.096;2022-12-07T08:57:48;16.15;;;3.55;;
73550;SDS011;61816;53.582;10.096;2022-12-07T09:00:14;12.80;;;2.25;;
73550;SDS011;61816;53.582;10.096;2022-12-07T09:02:42;17.13;;;2.40;;
73550;SDS011;61816;53.582;10.096;2022-12-07T09:05:08;12.55;;;2.47;;
73550;SDS011;61816;53.582;10.096;2022-12-07T09:07:34;9.25;;;1.85;;
73550;SDS011;61816;53.582;10.096;2022-12-07T09:10:01;23.48;;;3.42;;
73550;SDS011;61816;53.582;10.096;2022-12-07T09:12:26;13.93;;;2.97;;
73550;SDS011;61816;53.582;10.096;2022-12-07T09:14:52;23.20;;;3.83;;
73550;SDS011;61816;53.582;10.096;2022-12-07T09:17:17;17.42;;;3.45;;
73550;SDS011;61816;53.582;10.096;2022-12-07T09:19:42;13.77;;;3.42;;
73550;SDS011;61816;53.582;10.096;2022-12-07T09:22:08;19.27;;;3.65;;
73550;SDS011;61816;53.582;10.096;2022-12-07T09:24:34;13.57;;;4.03;;
73550;SDS011;61816;53.582;10.096;2022-12-07T09:26:59;13.18;;;2.92;;
73550;SDS011;61816;53.582;10.096;2022-12-07T09:29:24;13.75;;;2.28;;
73550;SDS011;61816;53.582;10.096;2022-12-07T09:31:53;15.13;;;2.40;;
73550;SDS011;61816;53.582;10.096;2022-12-07T09:34:18;11.00;;;2.75;;
73550;SDS011;61816;53.582;10.096;2022-12-07T09:36:45;13.15;;;2.17;;
73550;SDS011;61816;53.582;10.096;2022-12-07T09:39:11;21.48;;;2.60;;
73550;SDS011;61816;53.582;10.096;2022-12-07T09:41:39;13.98;;;3.58;;
73550;SDS011;61816;53.582;10.096;2022-12-07T09:44:10;11.05;;;2.45;;
73550;SDS011;61816;53.582;10.096;2022-12-07T09:46:39;18.67;;;2.75;;
73550;SDS011;61816;53.582;10.096;2022-12-07T09:49:14;10.57;;;2.28;;
73550;SDS011;61816;53.582;10.096;2022-12-07T09:51:42;14.80;;;2.50;;
73550;SDS011;61816;53.582;10.096;2022-12-07T09:54:09;14.93;;;2.35;;
73550;SDS011;61816;53.582;10.096;2022-12-07T09:56:38;14.88;;;2.63;;
73550;SDS011;61816;53.582;10.096;2022-12-07T09:59:09;10.85;;;2.20;;
73550;SDS011;61816;53.582;10.096;2022-12-07T10:01:40;16.13;;;3.10;;
73550;SDS011;61816;53.582;10.096;2022-12-07T10:06:41;13.63;;;2.10;;
73550;SDS011;61816;53.582;10.096;2022-12-07T10:09:14;10.63;;;2.33;;
73550;SDS011;61816;53.582;10.096;2022-12-07T10:14:27;14.80;;;2.38;;
73550;SDS011;61816;53.582;10.096;2022-12-07T10:16:54;14.32;;;2.42;;
73550;SDS011;61816;53.582;10.096;2022-12-07T10:19:22;16.02;;;2.85;;
73550;SDS011;61816;53.582;10.096;2022-12-07T10:24:47;19.25;;;2.55;;
73550;SDS011;61816;53.582;10.096;2022-12-07T10:27:19;8.38;;;1.98;;
73550;SDS011;61816;53.582;10.096;2022-12-07T10:29:51;16.70;;;3.22;;
73550;SDS011;61816;53.582;10.096;2022-12-07T10:34:43;12.63;;;2.13;;
73550;SDS011;61816;53.582;10.096;2022-12-07T10:39:48;17.88;;;2.42;;
73550;SDS011;61816;53.582;10.096;2022-12-07T10:44:49;13.93;;;2.75;;
73550;SDS011;61816;53.582;10.096;2022-12-07T10:53:14;16.17;;;2.28;;
73550;SDS011;61816;53.582;10.096;2022-12-07T10:55:49;15.55;;;2.15;;
73550;SDS011;61816;53.582;10.096;2022-12-07T10:58:24;12.35;;;2.05;;
73550;SDS011;61816;53.582;10.096;2022-12-07T11:06:39;11.57;;;2.35;;
73550;SDS011;61816;53.582;10.096;2022-12-07T11:09:37;16.75;;;2.30;;
73550;SDS011;61816;53.582;10.096;2022-12-07T11:15:27;13.07;;;1.90;;
73550;SDS011;61816;53.582;10.096;2022-12-07T11:18:14;17.55;;;2.55;;
73550;SDS011;61816;53.582;10.096;2022-12-07T11:23:56;13.00;;;1.95;;
73550;SDS011;61816;53.582;10.096;2022-12-07T11:31:41;16.65;;;2.92;;
73550;SDS011;61816;53.582;10.096;2022-12-07T11:34:24;15.93;;;2.45;;
73550;SDS011;61816;53.582;10.096;2022-12-07T11:37:06;12.82;;;1.80;;
73550;SDS011;61816;53.582;10.096;2022-12-07T11:39:42;17.60;;;2.28;;
73550;SDS011;61816;53.582;10.096;2022-12-07T11:42:16;17.23;;;2.42;;
73550;SDS011;61816;53.582;10.096;2022-12-07T12:01:15;16.67;;;2.15;;
73550;SDS011;61816;53.582;10.096;2022-12-07T12:04:31;7.10;;;1.95;;
73550;SDS011;61816;53.582;10.096;2022-12-07T12:09:17;17.17;;;2.92;;
73550;SDS011;61816;53.582;10.096;2022-12-07T12:14:57;10.15;;;2.63;;
73550;SDS011;61816;53.582;10.096;2022-12-07T12:17:49;21.23;;;2.55;;
73550;SDS011;61816;53.582;10.096;2022-12-07T12:20:49;26.27;;;3.33;;
73550;SDS011;61816;53.582;10.096;2022-12-07T12:23:28;22.25;;;2.40;;
73550;SDS011;61816;53.582;10.096;2022-12-07T12:26:17;13.63;;;2.20;;
73550;SDS011;61816;53.582;10.096;2022-12-07T12:33:50;21.17;;;2.55;;
73550;SDS011;61816;53.582;10.096;2022-12-07T12:51:51;29.83;;;2.88;;
73550;SDS011;61816;53.582;10.096;2022-12-07T12:57:27;16.90;;;1.63;;
73550;SDS011;61816;53.582;10.096;2022-12-07T13:20:46;11.57;;;1.70;;
73550;SDS011;61816;53.582;10.096;2022-12-07T13:36:55;17.98;;;2.05;;
73550;SDS011;61816;53.582;10.096;2022-12-07T13:39:22;13.93;;;2.88;;
73550;SDS011;61816;53.582;10.096;2022-12-07T13:41:53;13.43;;;2.63;;
73550;SDS011;61816;53.582;10.096;2022-12-07T13:44:26;11.10;;;1.65;;
73550;SDS011;61816;53.582;10.096;2022-12-07T13:47:03;10.02;;;1.38;;
73550;SDS011;61816;53.582;10.096;2022-12-07T13:49:38;12.50;;;1.67;;
73550;SDS011;61816;53.582;10.096;2022-12-07T13:52:16;9.68;;;1.60;;
73550;SDS011;61816;53.582;10.096;2022-12-07T13:54:46;11.93;;;1.42;;
73550;SDS011;61816;53.582;10.096;2022-12-07T13:57:14;14.10;;;2.10;;
73550;SDS011;61816;53.582;10.096;2022-12-07T13:59:40;7.70;;;1.77;;
73550;SDS011;61816;53.582;10.096;2022-12-07T14:05:06;12.02;;;1.95;;
73550;SDS011;61816;53.582;10.096;2022-12-07T14:07:59;7.18;;;1.50;;
73550;SDS011;61816;53.582;10.096;2022-12-07T14:10:31;8.05;;;1.40;;
73550;SDS011;61816;53.582;10.096;2022-12-07T14:12:59;25.88;;;2.28;;
73550;SDS011;61816;53.582;10.096;2022-12-07T14:15:27;12.60;;;1.85;;
73550;SDS011;61816;53.582;10.096;2022-12-07T14:17:56;11.75;;;2.53;;
73550;SDS011;61816;53.582;10.096;2022-12-07T14:23:05;9.02;;;1.45;;
73550;SDS011;61816;53.582;10.096;2022-12-07T14:25:46;10.20;;;1.70;;
73550;SDS011;61816;53.582;10.096;2022-12-07T14:28:33;5.15;;;1.65;;
73550;SDS011;61816;53.582;10.096;2022-12-07T14:31:00;5.45;;;1.10;;
73550;SDS011;61816;53.582;10.096;2022-12-07T14:33:26;8.98;;;1.55;;
73550;SDS011;61816;53.582;10.096;2022-12-07T14:35:52;9.77;;;1.52;;
73550;SDS011;61816;53.582;10.096;2022-12-07T14:38:20;13.45;;;1.90;;
73550;SDS011;61816;53.582;10.096;2022-12-07T14:40:47;13.05;;;1.67;;
73550;SDS011;61816;53.582;10.096;2022-12-07T14:43:14;9.55;;;1.50;;
73550;SDS011;61816;53.582;10.096;2022-12-07T14:45:41;16.77;;;1.58;;
73550;SDS011;61816;53.582;10.096;2022-12-07T14:48:13;9.13;;;1.70;;
73550;SDS011;61816;53.582;10.096;2022-12-07T14:50:49;11.85;;;1.70;;
73550;SDS011;61816;53.582;10.096;2022-12-07T14:53:18;9.23;;;1.40;;
73550;SDS011;61816;53.582;10.096;2022-12-07T14:55:50;10.70;;;1.60;;
73550;SDS011;61816;53.582;10.096;2022-12-07T14:58:17;4.80;;;1.15;;
73550;SDS011;61816;53.582;10.096;2022-12-07T15:00:43;10.30;;;1.95;;
73550;SDS011;61816;53.582;10.096;2022-12-07T15:03:09;12.05;;;1.90;;
73550;SDS011;61816;53.582;10.096;2022-12-07T15:05:34;8.48;;;1.92;;
73550;SDS011;61816;53.582;10.096;2022-12-07T15:08:01;5.55;;;1.23;;
73550;SDS011;61816;53.582;10.096;2022-12-07T15:10:28;6.50;;;1.42;;
73550;SDS011;61816;53.582;10.096;2022-12-07T15:12:57;6.18;;;1.58;;
73550;SDS011;61816;53.582;10.096;2022-12-07T15:15:41;8.20;;;0.88;;
73550;SDS011;61816;53.582;10.096;2022-12-07T15:18:07;5.70;;;1.25;;
73550;SDS011;61816;53.582;10.096;2022-12-07T15:20:33;11.45;;;1.55;;
73550;SDS011;61816;53.582;10.096;2022-12-07T15:22:58;7.72;;;1.63;;
73550;SDS011;61816;53.582;10.096;2022-12-07T15:25:24;6.50;;;1.40;;
73550;SDS011;61816;53.582;10.096;2022-12-07T15:27:49;15.02;;;2.00;;
73550;SDS011;61816;53.582;10.096;2022-12-07T15:30:14;12.38;;;1.75;;
73550;SDS011;61816;53.582;10.096;2022-12-07T15:32:40;9.65;;;3.00;;
73550;SDS011;61816;53.582;10.096;2022-12-07T15:35:05;9.95;;;1.92;;
73550;SDS011;61816;53.582;10.096;2022-12-07T15:37:31;9.02;;;2.45;;
73550;SDS011;61816;53.582;10.096;2022-12-07T15:39:56;12.10;;;2.38;;
73550;SDS011;61816;53.582;10.096;2022-12-07T15:42:22;17.15;;;1.88;;
73550;SDS011;61816;53.582;10.096;2022-12-07T15:44:47;11.63;;;2.05;;
73550;SDS011;61816;53.582;10.096;2022-12-07T15:47:29;4.95;;;1.60;;
73550;SDS011;61816;53.582;10.096;2022-12-07T15:50:08;12.25;;;1.83;;
73550;SDS011;61816;53.582;10.096;2022-12-07T15:52:35;19.23;;;2.95;;
73550;SDS011;61816;53.582;10.096;2022-12-07T15:55:00;7.18;;;1.92;;
73550;SDS011;61816;53.582;10.096;2022-12-07T15:57:28;8.38;;;1.45;;
73550;SDS011;61816;53.582;10.096;2022-12-07T15:59:54;11.85;;;1.33;;
73550;SDS011;61816;53.582;10.096;2022-12-07T16:02:19;8.13;;;1.80;;
73550;SDS011;61816;53.582;10.096;2022-12-07T16:04:45;7.50;;;1.40;;
73550;SDS011;61816;53.582;10.096;2022-12-07T16:07:11;7.20;;;1.67;;
73550;SDS011;61816;53.582;10.096;2022-12-07T16:09:41;17.65;;;1.70;;
73550;SDS011;61816;53.582;10.096;2022-12-07T16:12:07;11.13;;;2.53;;
73550;SDS011;61816;53.582;10.096;2022-12-07T16:14:33;7.10;;;1.77;;
73550;SDS011;61816;53.582;10.096;2022-12-07T16:16:59;19.25;;;2.13;;
73550;SDS011;61816;53.582;10.096;2022-12-07T16:19:24;7.05;;;1.20;;
73550;SDS011;61816;53.582;10.096;2022-12-07T16:21:50;11.57;;;2.25;;
73550;SDS011;61816;53.582;10.096;2022-12-07T16:24:16;11.73;;;3.63;;
73550;SDS011;61816;53.582;10.096;2022-12-07T16:26:41;5.65;;;1.77;;
73550;SDS011;61816;53.582;10.096;2022-12-07T16:29:10;3.10;;;1.30;;
73550;SDS011;61816;53.582;10.096;2022-12-07T16:31:36;14.52;;;1.73;;
73550;SDS011;61816;53.582;10.096;2022-12-07T16:34:02;13.93;;;1.75;;
73550;SDS011;61816;53.582;10.096;2022-12-07T16:36:27;8.05;;;1.35;;
73550;SDS011;61816;53.582;10.096;2022-12-07T16:38:53;9.27;;;1.55;;
73550;SDS011;61816;53.582;10.096;2022-12-07T16:41:18;7.85;;;1.50;;
73550;SDS011;61816;53.582;10.096;2022-12-07T16:43:44;12.75;;;1.60;;
73550;SDS011;61816;53.582;10.096;2022-12-07T16:46:09;5.57;;;1.38;;
73550;SDS011;61816;53.582;10.096;2022-12-07T16:48:36;4.97;;;1.35;;
73550;SDS011;61816;53.582;10.096;2022-12-07T16:51:03;10.20;;;2.00;;
73550;SDS011;61816;53.582;10.096;2022-12-07T16:53:30;8.43;;;2.03;;
73550;SDS011;61816;53.582;10.096;2022-12-07T16:55:56;6.30;;;2.22;;
73550;SDS011;61816;53.582;10.096;2022-12-07T16:58:21;12.70;;;2.55;;
73550;SDS011;61816;53.582;10.096;2022-12-07T17:00:46;9.77;;;1.98;;
73550;SDS011;61816;53.582;10.096;2022-12-07T17:03:13;11.40;;;2.10;;